Time;durP1;ratioP1;P1;durP2;ratioP2;P2;SDS_P1;SDS_P2;PMS_P1;PMS_P2;Temp;Humidity;BMP_temperature;BMP_pressure;BME280_temperature;BME280_humidity;BME280_pressure;Samples;Min_cycle;Max_cycle;Signal;HPM_P1;HPM_P2
2022/05/05 00:01:38;;;;;;;6.80;5.93;;;;;;;9.67;98.85;97243.84;5044076;28;20507;-69
2022/05/05 00:04:05;;;;;;;8.55;5.90;;;;;;;9.71;99.34;97311.91;5045422;28;20496;-69
2022/05/05 00:06:32;;;;;;;7.25;5.75;;;;;;;9.77;100.00;97287.56;5060889;28;20117;-67
2022/05/05 00:09:00;;;;;;;7.65;5.43;;;;;;;9.38;100.00;97247.06;5044283;28;20049;-69
2022/05/05 00:14:24;;;;;;;7.97;6.10;;;;;;;9.73;100.00;97297.72;5045543;28;20049;-69
2022/05/05 00:16:52;;;;;;;9.05;5.95;;;;;;;9.85;100.00;97290.13;5055283;28;20052;-69
2022/05/05 00:19:18;;;;;;;6.72;5.78;;;;;;;9.78;100.00;97294.69;5065383;28;20049;-69
2022/05/05 00:21:46;;;;;;;10.02;6.30;;;;;;;9.19;100.00;97234.78;5063516;28;20055;-68
2022/05/05 00:24:13;;;;;;;7.13;5.30;;;;;;;9.71;100.00;97298.06;5065747;28;20056;-69
2022/05/05 00:26:40;;;;;;;10.25;5.88;;;;;;;9.66;100.00;97292.81;5065231;28;20053;-69
2022/05/05 00:29:06;;;;;;;8.13;5.55;;;;;;;9.64;100.00;97295.13;5064939;28;20053;-67
2022/05/05 00:31:33;;;;;;;6.75;5.47;;;;;;;9.04;98.38;97245.84;5063370;28;20226;-69
2022/05/05 00:34:00;;;;;;;6.95;5.05;;;;;;;9.48;98.43;97304.59;5063429;28;20071;-68
2022/05/05 00:36:27;;;;;;;12.30;5.88;;;;;;;9.13;99.12;97252.00;5064660;28;20052;-68
2022/05/05 00:38:53;;;;;;;7.95;5.60;;;;;;;9.48;98.33;97308.19;5065375;28;20056;-69
2022/05/05 00:41:21;;;;;;;7.63;5.47;;;;;;;9.40;98.08;97311.91;5064383;28;20143;-68
2022/05/05 00:43:48;;;;;;;7.15;5.20;;;;;;;9.00;99.67;97275.31;5064316;28;20064;-68
2022/05/05 00:46:15;;;;;;;8.70;5.22;;;;;;;9.35;100.00;97314.94;5064420;28;20049;-69
2022/05/05 00:48:43;;;;;;;6.68;5.15;;;;;;;8.72;99.54;97217.38;5064673;28;20049;-68
2022/05/05 00:51:11;;;;;;;7.22;5.38;;;;;;;9.18;99.85;97304.25;5064833;28;20460;-69
2022/05/05 00:53:37;;;;;;;8.13;5.70;;;;;;;9.09;100.00;97307.16;5064418;28;20049;-69
2022/05/05 00:56:14;;;;;;;7.20;5.20;;;;;;;9.05;100.00;97299.94;5064448;28;20065;-69
2022/05/05 00:58:44;;;;;;;7.40;5.75;;;;;;;9.08;100.00;97307.50;5065045;28;20067;-69
2022/05/05 01:01:14;;;;;;;11.30;6.00;;;;;;;9.18;100.00;97309.75;5063105;28;20055;-68
2022/05/05 01:03:41;;;;;;;8.05;6.03;;;;;;;9.07;100.00;97303.16;5063913;28;20056;-68
2022/05/05 01:06:07;;;;;;;9.02;5.53;;;;;;;8.87;100.00;97265.47;5064149;28;20059;-69
2022/05/05 01:08:35;;;;;;;8.07;5.35;;;;;;;9.31;100.00;97310.50;5064150;28;20060;-69
2022/05/05 01:11:03;;;;;;;9.55;5.82;;;;;;;8.68;100.00;97221.97;5062924;28;20052;-67
2022/05/05 01:13:31;;;;;;;9.10;5.95;;;;;;;9.39;100.00;97307.53;5062797;28;20304;-69
2022/05/05 01:15:59;;;;;;;9.77;6.15;;;;;;;9.40;100.00;97309.16;5064570;28;20052;-69
2022/05/05 01:18:26;;;;;;;10.73;6.10;;;;;;;9.41;100.00;97313.50;5064215;28;20049;-66
2022/05/05 01:20:54;;;;;;;12.02;6.68;;;;;;;9.32;100.00;97310.13;5063780;28;20502;-68
2022/05/05 01:23:22;;;;;;;9.63;7.38;;;;;;;9.20;100.00;97277.03;5064143;28;20056;-67
2022/05/05 01:28:43;;;;;;;7.82;5.57;;;;;;;9.13;100.00;97268.56;5063912;28;20143;-68
2022/05/05 01:31:10;;;;;;;8.02;6.05;;;;;;;9.37;100.00;97309.88;5062662;28;20063;-68
2022/05/05 01:33:37;;;;;;;7.78;5.60;;;;;;;9.23;100.00;97301.22;5063926;28;20053;-67
2022/05/05 01:36:04;;;;;;;8.05;5.72;;;;;;;8.62;100.00;97236.41;5063819;28;20052;-66
2022/05/05 01:38:39;;;;;;;7.72;5.53;;;;;;;7.83;100.00;97142.66;5062650;28;20075;-68
2022/05/05 01:41:13;;;;;;;11.93;6.03;;;;;;;9.10;100.00;97296.91;5061798;28;20532;-68
2022/05/05 01:43:43;;;;;;;9.48;5.90;;;;;;;7.03;100.00;96971.88;5063627;28;20055;-66
2022/05/05 01:46:09;;;;;;;7.53;5.72;;;;;;;9.03;100.00;97291.19;5064198;28;20052;-67
2022/05/05 01:48:36;;;;;;;7.65;5.65;;;;;;;8.90;100.00;97278.59;5064114;28;20048;-68
2022/05/05 01:51:04;;;;;;;10.27;6.13;;;;;;;8.33;100.00;97185.13;5062604;28;20083;-68
2022/05/05 01:53:36;;;;;;;8.52;5.95;;;;;;;7.95;100.00;97106.78;5063892;28;20056;-67
2022/05/05 01:56:08;;;;;;;8.13;5.73;;;;;;;9.12;100.00;97300.91;5063960;28;20059;-68
2022/05/05 01:58:35;;;;;;;15.27;5.80;;;;;;;9.13;100.00;97287.91;5062371;28;20052;-68
2022/05/05 02:01:01;;;;;;;10.48;7.05;;;;;;;8.46;100.00;97189.44;5062285;28;20048;-68
2022/05/05 02:03:28;;;;;;;8.18;6.75;;;;;;;9.04;100.00;97285.31;5064118;28;20060;-68
2022/05/05 02:05:55;;;;;;;9.32;6.60;;;;;;;9.00;100.00;97306.53;5062261;28;20064;-68
2022/05/05 02:08:21;;;;;;;10.82;7.57;;;;;;;8.60;100.00;97274.63;5062384;28;20048;-68
2022/05/05 02:10:48;;;;;;;8.95;6.60;;;;;;;8.89;100.00;97316.47;5063406;28;20053;-68
2022/05/05 02:13:15;;;;;;;10.95;7.07;;;;;;;8.86;100.00;97314.44;5063612;28;20416;-67
2022/05/05 02:15:42;;;;;;;11.05;7.85;;;;;;;8.34;100.00;97216.28;5066348;28;20579;-68
2022/05/05 02:18:10;;;;;;;9.38;6.38;;;;;;;8.98;100.00;97299.72;5067679;28;20052;-68
2022/05/05 02:20:38;;;;;;;9.07;7.00;;;;;;;8.94;100.00;97298.84;5058699;28;20060;-68
2022/05/05 02:23:07;;;;;;;7.70;6.07;;;;;;;8.63;100.00;97254.59;5062518;28;20079;-68
2022/05/05 02:25:34;;;;;;;13.40;8.73;;;;;;;8.94;100.00;97298.84;5047584;28;20061;-67
2022/05/05 02:28:01;;;;;;;14.35;7.32;;;;;;;8.63;100.00;97260.13;5046296;28;20278;-68
2022/05/05 02:30:28;;;;;;;10.10;6.50;;;;;;;8.97;100.00;97298.94;5046245;28;20060;-67
2022/05/05 02:32:56;;;;;;;7.32;6.18;;;;;;;8.66;100.00;97275.97;5062785;28;20055;-68
2022/05/05 02:35:23;;;;;;;10.13;7.53;;;;;;;8.90;100.00;97303.44;5046517;28;20063;-67
2022/05/05 02:40:36;;;;;;;9.13;6.28;;;;;;;8.48;100.00;97263.59;5047236;28;20082;-69
2022/05/05 02:43:04;;;;;;;7.35;5.90;;;;;;;8.23;100.00;97245.53;5047162;28;20056;-68
2022/05/05 02:45:30;;;;;;;10.35;6.68;;;;;;;8.69;100.00;97331.28;5062542;28;20053;-67
2022/05/05 02:47:58;;;;;;;9.75;6.00;;;;;;;8.49;100.00;97309.38;5046063;28;20533;-67
2022/05/05 02:50:24;;;;;;;9.15;5.90;;;;;;;8.57;100.00;97327.75;5047410;28;20049;-69
2022/05/05 02:52:53;;;;;;;7.25;6.20;;;;;;;8.59;100.00;97330.97;5047328;28;20518;-69
2022/05/05 02:55:20;;;;;;;8.98;5.45;;;;;;;8.58;100.00;97335.69;5047557;28;20067;-68
2022/05/05 02:57:47;;;;;;;10.57;6.07;;;;;;;8.52;100.00;97336.31;5061979;28;20060;-69
2022/05/05 03:00:14;;;;;;;15.05;8.20;;;;;;;7.70;100.00;97241.97;5045305;28;20059;-69
2022/05/05 03:02:42;;;;;;;12.32;7.95;;;;;;;7.68;100.00;97230.47;5046685;28;20569;-68
2022/05/05 03:05:11;;;;;;;13.82;7.82;;;;;;;8.19;100.00;97302.56;5046716;28;20049;-68
2022/05/05 03:07:37;;;;;;;12.52;7.43;;;;;;;8.37;100.00;97339.78;5046925;28;20048;-68
2022/05/05 03:10:05;;;;;;;14.10;9.02;;;;;;;7.82;100.00;97293.53;5047264;28;20084;-67
2022/05/05 03:12:32;;;;;;;14.48;8.73;;;;;;;8.19;100.00;97338.44;5061506;28;20053;-67
2022/05/05 03:14:58;;;;;;;12.60;7.55;;;;;;;8.11;100.00;97355.91;5046681;28;20052;-66
2022/05/05 03:17:25;;;;;;;9.95;6.82;;;;;;;8.15;100.00;97343.03;5057432;28;20053;-68
2022/05/05 03:19:52;;;;;;;10.57;7.03;;;;;;;8.23;100.00;97372.47;5066018;28;20071;-68
2022/05/05 03:22:19;;;;;;;12.55;6.70;;;;;;;7.82;100.00;97284.44;5064600;28;20868;-68
2022/05/05 03:24:46;;;;;;;11.10;7.38;;;;;;;8.22;100.00;97354.28;5064831;28;20056;-69
2022/05/05 03:27:13;;;;;;;12.55;8.60;;;;;;;7.44;100.00;97224.19;5066042;28;20519;-68
2022/05/05 03:29:39;;;;;;;14.85;8.60;;;;;;;7.09;100.00;97182.53;5066754;28;20056;-68
2022/05/05 03:32:06;;;;;;;12.18;8.90;;;;;;;7.83;100.00;97263.97;5066431;28;20052;-68
2022/05/05 03:34:33;;;;;;;12.68;9.40;;;;;;;8.41;100.00;97360.03;5066383;28;20330;-68
2022/05/05 03:37:00;;;;;;;13.38;9.23;;;;;;;8.01;100.00;97298.44;5065060;28;20078;-69
2022/05/05 03:39:26;;;;;;;11.90;9.63;;;;;;;8.56;100.00;97364.81;5068415;28;20059;-68
2022/05/05 03:41:54;;;;;;;13.05;9.07;;;;;;;8.56;100.00;97353.78;5065950;28;20071;-68
2022/05/05 03:44:20;;;;;;;16.92;11.35;;;;;;;8.45;100.00;97314.00;5064537;28;20063;-68
2022/05/05 03:46:47;;;;;;;12.73;9.38;;;;;;;8.78;100.00;97365.09;5065795;28;20057;-68
2022/05/05 03:49:14;;;;;;;12.93;8.63;;;;;;;8.80;100.00;97371.06;5065767;28;20150;-68
2022/05/05 03:51:41;;;;;;;11.77;7.68;;;;;;;8.91;100.00;97365.84;5065778;28;20044;-69
2022/05/05 03:54:07;;;;;;;10.50;7.85;;;;;;;8.78;100.00;97356.00;5065759;28;20053;-69
2022/05/05 03:56:34;;;;;;;8.38;6.80;;;;;;;8.44;99.13;97291.09;5065844;28;20053;-68
2022/05/05 03:59:01;;;;;;;7.90;6.05;;;;;;;9.12;97.70;97377.47;5064331;28;20467;-68
2022/05/05 04:01:28;;;;;;;11.23;6.57;;;;;;;9.15;95.10;97371.28;5065148;28;20439;-68
2022/05/05 04:03:55;;;;;;;10.57;6.82;;;;;;;9.33;94.12;97386.38;5065461;28;20060;-67
2022/05/05 04:06:22;;;;;;;12.05;8.80;;;;;;;9.18;94.44;97370.56;5065391;28;20563;-68
2022/05/05 04:08:49;;;;;;;7.68;5.95;;;;;;;9.37;93.93;97390.03;5065520;28;20557;-68
2022/05/05 04:11:16;;;;;;;10.98;6.10;;;;;;;9.44;94.25;97387.44;5063585;28;20053;-68
2022/05/05 04:13:43;;;;;;;13.13;7.68;;;;;;;9.50;93.74;97394.31;5063478;28;20503;-68
2022/05/05 04:16:10;;;;;;;8.90;6.10;;;;;;;9.64;93.95;97394.69;5063652;28;20048;-69
2022/05/05 04:18:37;;;;;;;10.93;6.93;;;;;;;9.62;94.23;97380.44;5065220;28;20063;-69
2022/05/05 04:21:04;;;;;;;11.15;7.13;;;;;;;6.68;93.99;96888.25;5064983;28;20071;-66
2022/05/05 04:23:30;;;;;;;10.23;7.07;;;;;;;10.11;91.95;97398.31;5063634;28;20064;-69
2022/05/05 04:26:14;;;;;;;10.18;7.32;;;;;;;10.24;89.93;97399.81;5064164;28;20052;-68
2022/05/05 04:28:43;;;;;;;11.02;7.30;;;;;;;10.32;89.75;97398.81;5064917;28;20113;-69
2022/05/05 04:31:18;;;;;;;10.43;7.50;;;;;;;10.42;89.82;97381.66;5064602;28;20060;-67
2022/05/05 04:33:45;;;;;;;10.75;7.18;;;;;;;10.44;90.99;97401.47;5064639;28;20080;-67
2022/05/05 04:36:12;;;;;;;10.93;7.40;;;;;;;10.27;90.64;97368.66;5064858;28;20049;-69
2022/05/05 04:38:39;;;;;;;11.50;6.97;;;;;;;10.52;91.28;97402.44;5064554;28;20101;-68
2022/05/05 04:41:06;;;;;;;9.63;7.20;;;;;;;10.31;89.43;97333.53;5063019;28;20059;-68
2022/05/05 04:43:33;;;;;;;15.35;8.45;;;;;;;10.77;89.98;97380.81;5063415;28;20122;-70
2022/05/05 04:46:00;;;;;;;17.10;9.35;;;;;;;10.69;89.23;97358.53;5047489;28;20053;-68
2022/05/05 04:48:27;;;;;;;9.23;7.18;;;;;;;11.04;89.44;97402.00;5044654;28;20080;-68
2022/05/05 04:50:54;;;;;;;11.57;6.30;;;;;;;11.16;89.37;97393.53;5043162;28;20537;-66
2022/05/05 04:53:21;;;;;;;9.82;7.80;;;;;;;11.26;87.96;97376.28;5042710;28;20053;-67
2022/05/05 04:55:47;;;;;;;12.43;6.05;;;;;;;11.44;88.07;97399.66;5043243;28;20086;-66
2022/05/05 04:58:18;;;;;;;6.18;5.55;;;;;;;11.29;87.74;97370.00;5044254;28;20055;-67
2022/05/05 05:00:45;;;;;;;7.47;5.65;;;;;;;11.54;87.13;97396.28;5044400;28;20049;-67
2022/05/05 05:03:32;;;;;;;11.80;6.47;;;;;;;11.77;86.51;97397.94;5044045;28;20050;-68
2022/05/05 05:05:58;;;;;;;9.45;5.50;;;;;;;11.90;86.42;97398.56;5044060;28;20056;-67
2022/05/05 05:08:25;;;;;;;10.10;6.85;;;;;;;12.10;85.23;97388.97;5042814;28;20069;-67
2022/05/05 05:10:52;;;;;;;8.20;6.55;;;;;;;12.15;84.93;97391.44;5044468;28;20049;-67
2022/05/05 05:13:18;;;;;;;9.23;6.22;;;;;;;12.18;84.50;97374.03;5043985;28;20499;-67
2022/05/05 05:15:45;;;;;;;10.10;7.22;;;;;;;12.45;83.78;97391.50;5058859;28;20057;-67
2022/05/05 05:18:12;;;;;;;13.32;6.65;;;;;;;12.03;86.81;97388.84;5059839;28;20044;-67
2022/05/05 05:20:38;;;;;;;12.05;8.00;;;;;;;12.02;88.10;97378.91;5064083;28;20532;-67
2022/05/05 05:23:05;;;;;;;16.08;7.45;;;;;;;11.74;86.98;97320.16;5063581;28;20573;-69
2022/05/05 05:25:32;;;;;;;10.55;6.95;;;;;;;12.40;86.02;97397.38;5063771;28;20492;-68
2022/05/05 05:28:04;;;;;;;11.73;7.30;;;;;;;12.10;89.00;97395.34;5062707;28;20132;-66
2022/05/05 05:30:38;;;;;;;;;;;;;;;12.09;89.98;97401.25;5063976;28;20114;-68
2022/05/05 05:33:05;;;;;;;8.65;6.80;;;;;;;12.28;88.77;97394.81;5062973;28;19924;-66
2022/05/05 05:35:32;;;;;;;9.60;6.68;;;;;;;12.29;87.06;97368.63;5063708;28;20512;-67
2022/05/05 05:37:59;;;;;;;8.23;5.32;;;;;;;12.88;85.38;97396.50;5063714;28;20117;-66
2022/05/05 05:40:25;;;;;;;8.48;6.60;;;;;;;12.63;84.64;97337.78;5063796;28;20056;-67
2022/05/05 05:42:52;;;;;;;12.38;6.35;;;;;;;12.88;84.65;97358.38;5063375;28;20511;-68
2022/05/05 05:45:19;;;;;;;7.50;5.97;;;;;;;13.34;84.00;97373.66;5063966;28;20061;-67
2022/05/05 05:47:46;;;;;;;9.90;6.97;;;;;;;13.70;81.49;97395.13;5063410;28;20052;-66
2022/05/05 05:50:12;;;;;;;7.60;5.78;;;;;;;13.52;80.66;97330.16;5063476;28;20059;-67
2022/05/05 05:52:39;;;;;;;6.50;5.90;;;;;;;14.09;81.12;97394.72;5062417;28;20798;-66
2022/05/05 05:55:06;;;;;;;7.97;5.90;;;;;;;14.24;79.14;97371.38;5063455;28;20059;-67
2022/05/05 05:57:33;;;;;;;7.25;6.00;;;;;;;13.63;77.68;97238.38;5063443;28;20068;-66
2022/05/05 06:00:00;;;;;;;11.43;6.20;;;;;;;14.57;77.78;97393.56;5056004;28;20052;-67
2022/05/05 06:05:17;;;;;;;6.32;5.63;;;;;;;14.47;77.59;97332.94;5049537;28;20475;-62
2022/05/05 06:07:44;;;;;;;9.98;5.82;;;;;;;15.22;76.35;97391.53;5049165;28;20052;-60
2022/05/05 06:10:11;;;;;;;7.38;6.18;;;;;;;15.44;74.85;97379.31;5045499;28;20319;-57
2022/05/05 06:12:38;;;;;;;10.10;5.57;;;;;;;14.01;73.46;97148.75;5049837;28;20045;-56
2022/05/05 06:15:05;;;;;;;6.38;5.75;;;;;;;15.63;73.52;97362.22;5053581;28;20096;-65
2022/05/05 06:17:33;;;;;;;7.95;5.63;;;;;;;15.81;74.20;97385.38;5054739;28;20052;-58
2022/05/05 06:20:00;;;;;;;6.65;5.55;;;;;;;14.40;71.27;97149.75;5049575;28;20068;-59
2022/05/05 06:22:27;;;;;;;6.57;5.90;;;;;;;15.99;69.44;97352.69;5049051;28;20119;-60
2022/05/05 06:24:53;;;;;;;6.00;5.40;;;;;;;16.37;67.44;97382.66;5050775;28;20056;-59
2022/05/05 06:27:21;;;;;;;5.60;4.80;;;;;;;16.55;68.20;97375.06;5049609;28;20471;-67
2022/05/05 06:29:47;;;;;;;7.43;5.30;;;;;;;16.71;66.93;97385.03;5051393;28;20064;-57
2022/05/05 06:32:17;;;;;;;6.40;5.53;;;;;;;16.90;66.78;97379.00;5051535;28;20036;-60
2022/05/05 06:34:44;;;;;;;7.10;5.65;;;;;;;16.78;66.08;97348.66;5052034;28;20131;-59
2022/05/05 06:37:12;;;;;;;10.10;5.45;;;;;;;16.91;65.15;97387.00;5045271;28;20069;-60
2022/05/05 06:39:39;;;;;;;6.68;5.18;;;;;;;17.08;64.16;97351.75;5060612;28;20052;-59
2022/05/05 06:42:06;;;;;;;9.95;6.28;;;;;;;16.91;64.20;97308.66;5057998;28;20053;-66
2022/05/05 06:44:33;;;;;;;6.93;5.25;;;;;;;17.14;64.07;97390.13;5057860;28;20517;-59
2022/05/05 06:47:00;;;;;;;5.13;4.57;;;;;;;16.92;65.43;97387.78;5056332;28;20053;-60
2022/05/05 06:49:26;;;;;;;6.10;5.40;;;;;;;16.57;64.37;97355.88;5044915;28;20057;-60
2022/05/05 06:51:53;;;;;;;5.97;5.35;;;;;;;17.14;63.61;97386.53;5051721;28;20068;-60
2022/05/05 06:54:20;;;;;;;7.55;5.32;;;;;;;16.61;63.53;97351.06;5051627;28;20491;-58
2022/05/05 06:56:46;;;;;;;6.38;4.78;;;;;;;16.94;64.76;97393.78;5055004;28;20056;-66
2022/05/05 06:59:13;;;;;;;8.10;5.10;;;;;;;17.29;65.09;97396.50;5053782;28;20045;-66
2022/05/05 07:01:52;;;;;;;6.13;5.30;;;;;;;17.77;61.69;97389.06;5049979;28;20433;-66
2022/05/05 07:07:13;;;;;;;5.15;4.75;;;;;;;18.17;56.74;97390.41;5056530;28;20546;-59
2022/05/05 07:12:27;;;;;;;6.40;4.60;;;;;;;18.28;55.74;97363.91;5050362;28;20519;-56
2022/05/05 07:14:54;;;;;;;6.35;4.97;;;;;;;18.84;54.77;97397.09;5059611;28;20072;-66
2022/05/05 07:17:23;;;;;;;8.57;5.50;;;;;;;18.69;54.13;97339.50;5064445;28;20495;-72
2022/05/05 07:19:51;;;;;;;4.95;4.45;;;;;;;19.03;52.87;97385.25;5064691;28;20055;-58
2022/05/05 07:22:18;;;;;;;4.78;4.45;;;;;;;18.90;50.87;97395.44;5063996;28;20057;-58
2022/05/05 07:24:46;;;;;;;4.70;4.35;;;;;;;18.96;51.25;97390.97;5055863;28;20053;-58
2022/05/05 07:27:13;;;;;;;4.95;4.28;;;;;;;18.78;48.31;97275.25;5050563;28;20044;-59
2022/05/05 07:29:41;;;;;;;4.25;3.95;;;;;;;18.43;47.58;97208.28;5056137;28;20053;-74
2022/05/05 07:32:08;;;;;;;4.40;4.10;;;;;;;20.12;45.58;97394.34;5055467;28;20052;-59
2022/05/05 07:34:35;;;;;;;4.07;3.78;;;;;;;20.35;46.62;97394.41;5050198;28;20174;-59
2022/05/05 07:37:03;;;;;;;5.57;4.15;;;;;;;19.70;46.38;97347.16;5052267;28;20044;-66
2022/05/05 07:39:29;;;;;;;17.90;4.72;;;;;;;17.91;48.40;97147.94;5061059;28;20070;-57
2022/05/05 07:41:56;;;;;;;4.65;4.25;;;;;;;20.07;46.92;97356.25;5046566;28;20053;-66
2022/05/05 07:44:23;;;;;;;3.65;3.45;;;;;;;20.35;43.94;97326.88;5059261;28;20053;-61
2022/05/05 07:46:50;;;;;;;4.85;4.28;;;;;;;21.06;44.15;97411.75;5050097;28;20365;-66
2022/05/05 07:49:17;;;;;;;4.28;3.90;;;;;;;19.68;42.74;97152.84;5058757;28;20049;-59
2022/05/05 07:51:44;;;;;;;4.60;4.05;;;;;;;20.89;42.75;97339.59;5057447;28;20045;-67
2022/05/05 07:56:56;;;;;;;5.70;4.10;;;;;;;19.72;44.03;97310.97;5057248;28;20049;-60
2022/05/05 07:59:22;;;;;;;6.57;3.80;;;;;;;20.37;44.14;97403.25;5059646;28;20487;-61
2022/05/05 08:01:49;;;;;;;4.30;3.90;;;;;;;21.45;43.25;97405.38;5051064;28;20049;-66
2022/05/05 08:04:16;;;;;;;4.22;3.83;;;;;;;21.78;42.35;97379.69;5045701;28;20052;-59
2022/05/05 08:06:42;;;;;;;5.20;4.32;;;;;;;22.36;40.77;97398.56;5045022;28;20053;-66
2022/05/05 08:09:09;;;;;;;14.40;10.05;;;;;;;22.73;40.92;97400.06;5045337;28;20142;-57
2022/05/05 08:11:37;;;;;;;4.72;4.20;;;;;;;22.19;40.64;97396.91;5044699;28;20514;-58
2022/05/05 08:14:04;;;;;;;5.03;4.63;;;;;;;22.37;41.88;97402.94;5053144;28;20056;-59
2022/05/05 08:16:31;;;;;;;4.57;3.95;;;;;;;21.58;41.71;97437.31;5055725;28;20321;-58
2022/05/05 08:18:58;;;;;;;4.97;4.55;;;;;;;21.71;41.78;97379.03;5056355;28;20053;-57
2022/05/05 08:21:25;;;;;;;4.82;4.53;;;;;;;22.33;40.47;97405.06;5059574;28;20499;-66
2022/05/05 08:28:28;;;;;;;5.88;5.38;;;;;;;22.82;40.47;97408.75;5059787;28;20052;-60
2022/05/05 08:29:24;;;;;;;9.07;4.47;;;;;;;22.78;39.91;97384.66;5050169;28;20126;-57
2022/05/05 08:31:51;;;;;;;5.07;4.65;;;;;;;22.51;39.43;97358.69;5053858;28;20052;-65
2022/05/05 08:34:17;;;;;;;7.18;6.57;;;;;;;22.96;39.35;97401.91;5049943;28;20493;-58
2022/05/05 08:36:45;;;;;;;4.57;4.20;;;;;;;22.96;38.95;97401.91;5057224;28;20045;-65
2022/05/05 08:39:18;;;;;;;4.88;4.55;;;;;;;22.51;37.70;97347.38;5049200;28;20136;-68
2022/05/05 08:41:47;;;;;;;5.32;4.55;;;;;;;21.99;40.24;97418.75;5052911;28;20060;-57
2022/05/05 08:44:13;;;;;;;5.28;4.85;;;;;;;22.10;40.79;97393.91;5052100;28;20041;-68
2022/05/05 08:46:40;;;;;;;5.40;5.00;;;;;;;21.67;41.37;97417.81;5054262;28;20049;-64
2022/05/05 08:49:08;;;;;;;9.35;6.75;;;;;;;21.41;42.24;97399.78;5050964;28;20082;-59
2022/05/05 08:51:46;;;;;;;7.88;5.70;;;;;;;21.85;42.05;97412.59;5054380;28;20048;-73
2022/05/05 08:54:16;;;;;;;8.13;5.18;;;;;;;21.13;43.99;97411.63;5049295;28;20423;-57
2022/05/05 08:56:53;;;;;;;5.28;4.78;;;;;;;20.65;44.59;97414.84;5052669;28;20037;-66
2022/05/05 08:59:22;;;;;;;5.85;5.07;;;;;;;20.46;45.83;97412.75;5053113;28;20049;-68
2022/05/05 09:01:51;;;;;;;5.25;4.75;;;;;;;19.88;46.16;97409.56;5058699;28;20589;-68
2022/05/05 09:04:23;;;;;;;5.95;5.28;;;;;;;19.95;45.49;97344.78;5064387;28;20076;-57
2022/05/05 09:06:52;;;;;;;5.38;4.88;;;;;;;20.75;44.64;97424.34;5064213;28;20057;-56
2022/05/05 09:09:35;;;;;;;4.35;3.95;;;;;;;20.84;45.33;97422.56;5052640;28;20060;-71
2022/05/05 09:12:21;;;;;;;4.35;4.03;;;;;;;20.82;46.68;97418.56;5064218;28;20044;-70
2022/05/05 09:14:53;;;;;;;4.15;3.75;;;;;;;20.81;47.14;97417.00;5064324;28;20049;-58
2022/05/05 09:17:28;;;;;;;5.17;4.67;;;;;;;20.76;46.76;97409.03;5064175;28;20052;-68
2022/05/05 09:19:57;;;;;;;4.43;3.97;;;;;;;18.68;46.07;97090.97;5056435;28;20131;-63
2022/05/05 09:22:27;;;;;;;5.82;4.55;;;;;;;20.93;45.72;97422.81;5049206;28;20052;-70
2022/05/05 09:24:56;;;;;;;5.78;4.43;;;;;;;20.79;45.52;97408.16;5050176;28;20099;-68
2022/05/05 09:27:27;;;;;;;4.35;4.05;;;;;;;20.92;45.08;97428.88;5051653;28;20067;-57
2022/05/05 09:30:05;;;;;;;5.32;4.85;;;;;;;21.15;44.20;97425.28;5046654;28;20053;-58
2022/05/05 09:32:36;;;;;;;6.25;4.43;;;;;;;21.25;43.15;97419.44;5059492;28;20084;-58
2022/05/05 09:35:13;;;;;;;5.70;5.20;;;;;;;21.49;41.77;97423.81;5064269;28;20056;-57
2022/05/05 09:37:44;;;;;;;5.22;4.60;;;;;;;21.75;40.82;97425.69;5063880;28;20048;-57
2022/05/05 09:40:17;;;;;;;5.68;4.68;;;;;;;21.87;42.65;97427.88;5063974;28;20074;-58
2022/05/05 09:42:49;;;;;;;5.10;4.32;;;;;;;21.71;44.18;97421.34;5063144;28;20458;-56
2022/05/05 09:45:25;;;;;;;4.65;4.25;;;;;;;21.83;43.12;97421.50;5063879;28;20049;-70
2022/05/05 09:47:54;;;;;;;4.72;4.32;;;;;;;21.60;43.23;97382.09;5061806;28;20073;-57
2022/05/05 09:50:23;;;;;;;4.53;4.22;;;;;;;22.00;42.52;97422.38;5063578;28;20057;-57
2022/05/05 09:58:35;;;;;;;4.47;4.18;;;;;;;22.81;39.93;97421.25;5063730;28;20051;-70
2022/05/05 10:01:10;;;;;;;5.45;5.05;;;;;;;22.81;40.73;97417.66;5062203;28;20056;-71
2022/05/05 10:04:03;;;;;;;4.50;4.10;;;;;;;22.35;41.63;97428.00;5063803;28;20060;-70
2022/05/05 10:06:32;;;;;;;4.60;4.15;;;;;;;21.72;42.30;97389.09;5063103;28;20466;-57
2022/05/05 10:09:06;;;;;;;5.97;4.50;;;;;;;21.14;45.55;97404.75;5063420;28;20110;-58
2022/05/05 10:11:34;;;;;;;4.65;4.35;;;;;;;21.33;44.42;97403.97;5063732;28;20059;-60
2022/05/05 10:14:12;;;;;;;5.13;4.25;;;;;;;21.82;44.08;97422.75;5063470;28;20105;-60
2022/05/05 10:16:40;;;;;;;5.55;5.03;;;;;;;21.94;42.95;97427.72;5052366;28;20544;-59
2022/05/05 10:19:08;;;;;;;5.10;4.50;;;;;;;21.98;43.10;97422.81;5055443;28;20052;-56
2022/05/05 10:21:47;;;;;;;6.60;6.00;;;;;;;22.00;44.50;97431.59;5074654;28;20068;-59
2022/05/05 10:24:22;;;;;;;5.00;4.53;;;;;;;22.11;44.24;97420.09;5048034;28;20053;-70
2022/05/05 10:26:54;;;;;;;5.90;5.40;;;;;;;22.11;42.58;97420.88;5051228;28;20057;-58
2022/05/05 10:29:40;;;;;;;8.30;5.60;;;;;;;22.16;42.76;97389.31;5050274;28;20056;-68
2022/05/05 10:32:10;;;;;;;6.95;5.57;;;;;;;22.53;42.62;97418.34;5059835;28;20056;-74
2022/05/05 10:34:40;;;;;;;8.73;6.60;;;;;;;22.44;42.93;97422.56;5060202;28;20052;-68
2022/05/05 10:37:14;;;;;;;5.30;4.63;;;;;;;22.43;42.43;97420.94;5064476;28;20590;-68
2022/05/05 10:39:45;;;;;;;5.20;4.80;;;;;;;22.34;42.32;97394.56;5053366;28;20052;-72
2022/05/05 10:42:13;;;;;;;38.45;19.10;;;;;;;22.68;41.08;97430.91;5056679;28;20075;-59
2022/05/05 10:45:06;;;;;;;26.73;13.98;;;;;;;22.65;41.39;97432.59;5055379;28;20075;-58
2022/05/05 10:48:06;;;;;;;17.13;8.70;;;;;;;22.45;42.90;97429.78;5052456;28;20064;-75
2022/05/05 10:50:56;;;;;;;5.60;5.20;;;;;;;22.66;42.65;97439.00;5047668;28;20400;-76
2022/05/05 10:53:26;;;;;;;7.78;5.65;;;;;;;22.71;40.64;97438.47;5048033;28;20080;-79
2022/05/05 10:55:53;;;;;;;5.97;5.38;;;;;;;22.58;41.40;97409.34;5047190;28;20059;-76
2022/05/05 10:59:04;;;;;;;5.90;5.47;;;;;;;22.88;42.15;97440.06;5047221;28;20078;-70
2022/05/05 11:01:43;;;;;;;6.80;6.20;;;;;;;22.56;42.75;97445.72;5057075;28;20412;-73
2022/05/05 11:04:17;;;;;;;6.32;5.72;;;;;;;22.23;43.84;97439.97;5060862;28;20102;-68
2022/05/05 11:06:45;;;;;;;5.40;5.00;;;;;;;22.29;41.43;97443.88;5057176;28;20056;-59
2022/05/05 11:09:32;;;;;;;5.20;4.80;;;;;;;22.29;43.84;97443.88;5052464;28;20056;-60
2022/05/05 11:12:31;;;;;;;5.00;4.60;;;;;;;22.04;45.00;97445.66;5064215;28;20059;-69
2022/05/05 11:23:49;;;;;;;5.78;5.20;;;;;;;21.57;47.97;97348.31;5046738;28;20286;-58
2022/05/05 11:26:17;;;;;;;5.20;4.78;;;;;;;22.07;46.28;97447.59;5044649;28;20045;-69
2022/05/05 11:28:45;;;;;;;5.93;5.30;;;;;;;21.62;46.68;97401.38;5052949;28;20053;-69
2022/05/05 11:31:17;;;;;;;6.35;5.85;;;;;;;21.98;47.39;97453.84;5056208;28;20322;-57
2022/05/05 11:33:56;;;;;;;6.30;5.68;;;;;;;21.87;47.33;97450.44;5056566;28;20071;-64
2022/05/05 11:36:31;;;;;;;5.43;5.00;;;;;;;21.47;49.26;97454.44;5050561;28;20052;-67
2022/05/05 11:38:58;;;;;;;5.40;4.90;;;;;;;21.05;49.57;97458.03;5063939;28;20427;-65
2022/05/05 11:41:25;;;;;;;5.40;4.90;;;;;;;20.67;50.30;97366.56;5061593;28;20063;-57
2022/05/05 11:46:38;;;;;;;4.85;4.45;;;;;;;21.31;49.14;97417.69;5052134;28;20478;-64
2022/05/05 11:49:06;;;;;;;5.88;5.07;;;;;;;21.81;47.80;97457.84;5056053;28;20138;-57
2022/05/05 11:51:34;;;;;;;5.40;4.90;;;;;;;21.01;47.83;97284.69;5052229;28;20054;-67
2022/05/05 11:54:07;;;;;;;6.65;5.13;;;;;;;20.55;48.17;97170.13;5051618;28;20055;-60
2022/05/05 11:56:44;;;;;;;6.82;5.05;;;;;;;20.93;51.33;97464.25;5050883;28;20044;-66
2022/05/05 12:02:09;;;;;;;7.15;5.22;;;;;;;20.87;53.56;97409.63;5059431;28;20045;-72
2022/05/05 12:04:50;;;;;;;4.88;4.40;;;;;;;20.90;52.74;97369.34;5048105;28;20056;-68
2022/05/05 12:07:23;;;;;;;5.75;5.25;;;;;;;21.17;53.00;97446.16;5053399;28;20458;-66
2022/05/05 12:09:55;;;;;;;7.35;5.60;;;;;;;21.02;53.40;97469.38;5045638;28;20057;-68
2022/05/05 12:12:25;;;;;;;4.72;4.43;;;;;;;20.22;54.04;97452.50;5060582;28;20045;-67
2022/05/05 12:14:56;;;;;;;5.78;5.25;;;;;;;20.05;57.88;97476.00;5045353;28;20083;-67
2022/05/05 12:17:27;;;;;;;5.57;5.00;;;;;;;19.71;59.06;97483.69;5045316;28;20099;-67
2022/05/05 12:19:58;;;;;;;4.82;4.43;;;;;;;19.42;57.98;97436.25;5045860;28;20089;-68
2022/05/05 12:22:33;;;;;;;4.57;4.18;;;;;;;18.41;55.15;97395.88;5045111;28;20048;-69
2022/05/05 12:25:14;;;;;;;5.90;4.32;;;;;;;17.86;58.68;97431.47;5045263;28;20103;-67